sensor_id;sensor_type;location;lat;lon;timestamp;P1;durP1;ratioP1;P2;durP2;ratioP2
8319;SDS011;4197;42.130;24.746;2023-08-06T00:01:04;12.63;;;8.00;;
8319;SDS011;4197;42.130;24.746;2023-08-06T00:03:33;9.27;;;7.25;;
8319;SDS011;4197;42.130;24.746;2023-08-06T00:06:01;10.18;;;7.68;;
8319;SDS011;4197;42.130;24.746;2023-08-06T00:08:29;9.80;;;7.47;;
8319;SDS011;4197;42.130;24.746;2023-08-06T00:10:58;9.85;;;7.32;;
8319;SDS011;4197;42.130;24.746;2023-08-06T00:13:27;10.45;;;7.75;;
8319;SDS011;4197;42.130;24.746;2023-08-06T00:15:55;11.23;;;7.63;;
8319;SDS011;4197;42.130;24.746;2023-08-06T00:18:23;10.55;;;8.15;;
8319;SDS011;4197;42.130;24.746;2023-08-06T00:20:52;11.25;;;6.90;;
8319;SDS011;4197;42.130;24.746;2023-08-06T00:23:20;16.90;;;8.40;;
8319;SDS011;4197;42.130;24.746;2023-08-06T00:25:48;11.05;;;7.50;;
8319;SDS011;4197;42.130;24.746;2023-08-06T00:28:16;16.05;;;8.30;;
8319;SDS011;4197;42.130;24.746;2023-08-06T00:30:46;12.38;;;8.35;;
8319;SDS011;4197;42.130;24.746;2023-08-06T00:33:19;12.05;;;8.75;;
8319;SDS011;4197;42.130;24.746;2023-08-06T00:35:47;13.02;;;8.10;;
8319;SDS011;4197;42.130;24.746;2023-08-06T00:38:16;13.15;;;9.18;;
8319;SDS011;4197;42.130;24.746;2023-08-06T00:40:44;12.35;;;7.85;;
8319;SDS011;4197;42.130;24.746;2023-08-06T00:43:12;13.40;;;8.00;;
8319;SDS011;4197;42.130;24.746;2023-08-06T00:45:40;10.43;;;8.57;;
8319;SDS011;4197;42.130;24.746;2023-08-06T00:48:10;14.00;;;9.02;;
8319;SDS011;4197;42.130;24.746;2023-08-06T00:50:38;11.15;;;8.88;;
8319;SDS011;4197;42.130;24.746;2023-08-06T00:53:07;13.02;;;9.10;;
8319;SDS011;4197;42.130;24.746;2023-08-06T00:55:36;9.52;;;8.52;;
8319;SDS011;4197;42.130;24.746;2023-08-06T00:58:04;10.35;;;8.88;;
8319;SDS011;4197;42.130;24.746;2023-08-06T01:00:33;10.48;;;7.93;;
8319;SDS011;4197;42.130;24.746;2023-08-06T01:03:01;12.00;;;8.98;;
8319;SDS011;4197;42.130;24.746;2023-08-06T01:05:31;15.13;;;9.18;;
8319;SDS011;4197;42.130;24.746;2023-08-06T01:08:05;9.70;;;8.57;;
8319;SDS011;4197;42.130;24.746;2023-08-06T01:10:42;11.07;;;8.95;;
8319;SDS011;4197;42.130;24.746;2023-08-06T01:13:21;11.30;;;9.38;;
8319;SDS011;4197;42.130;24.746;2023-08-06T01:15:55;12.40;;;8.82;;
8319;SDS011;4197;42.130;24.746;2023-08-06T01:18:26;12.82;;;8.93;;
8319;SDS011;4197;42.130;24.746;2023-08-06T01:20:55;10.90;;;8.55;;
8319;SDS011;4197;42.130;24.746;2023-08-06T01:23:23;12.38;;;8.70;;
8319;SDS011;4197;42.130;24.746;2023-08-06T01:25:55;10.65;;;8.60;;
8319;SDS011;4197;42.130;24.746;2023-08-06T01:28:32;11.15;;;8.95;;
8319;SDS011;4197;42.130;24.746;2023-08-06T01:31:07;11.02;;;8.50;;
8319;SDS011;4197;42.130;24.746;2023-08-06T01:33:43;12.57;;;8.70;;
8319;SDS011;4197;42.130;24.746;2023-08-06T01:36:15;9.38;;;8.23;;
8319;SDS011;4197;42.130;24.746;2023-08-06T01:38:45;13.70;;;9.13;;
8319;SDS011;4197;42.130;24.746;2023-08-06T01:41:13;10.77;;;7.68;;
8319;SDS011;4197;42.130;24.746;2023-08-06T01:43:41;12.05;;;8.55;;
8319;SDS011;4197;42.130;24.746;2023-08-06T01:46:09;10.15;;;8.13;;
8319;SDS011;4197;42.130;24.746;2023-08-06T01:48:37;14.07;;;8.65;;
8319;SDS011;4197;42.130;24.746;2023-08-06T01:51:06;12.32;;;9.10;;
8319;SDS011;4197;42.130;24.746;2023-08-06T01:53:35;14.98;;;8.82;;
8319;SDS011;4197;42.130;24.746;2023-08-06T01:56:03;12.85;;;8.98;;
8319;SDS011;4197;42.130;24.746;2023-08-06T01:58:31;9.30;;;8.25;;
8319;SDS011;4197;42.130;24.746;2023-08-06T02:01:00;9.73;;;7.82;;
8319;SDS011;4197;42.130;24.746;2023-08-06T02:03:29;16.75;;;9.10;;
8319;SDS011;4197;42.130;24.746;2023-08-06T02:05:57;12.68;;;8.80;;
8319;SDS011;4197;42.130;24.746;2023-08-06T02:08:27;12.52;;;8.85;;
8319;SDS011;4197;42.130;24.746;2023-08-06T02:10:56;13.85;;;8.68;;
8319;SDS011;4197;42.130;24.746;2023-08-06T02:13:26;15.35;;;8.38;;
8319;SDS011;4197;42.130;24.746;2023-08-06T02:15:54;11.05;;;8.80;;
8319;SDS011;4197;42.130;24.746;2023-08-06T02:18:22;11.82;;;9.32;;
8319;SDS011;4197;42.130;24.746;2023-08-06T02:20:56;13.52;;;8.85;;
8319;SDS011;4197;42.130;24.746;2023-08-06T02:23:25;13.23;;;9.65;;
8319;SDS011;4197;42.130;24.746;2023-08-06T02:25:58;15.25;;;10.50;;
8319;SDS011;4197;42.130;24.746;2023-08-06T02:28:27;17.15;;;10.25;;
8319;SDS011;4197;42.130;24.746;2023-08-06T02:30:56;13.45;;;10.07;;
8319;SDS011;4197;42.130;24.746;2023-08-06T02:33:24;13.02;;;11.48;;
8319;SDS011;4197;42.130;24.746;2023-08-06T02:35:58;15.80;;;11.05;;
8319;SDS011;4197;42.130;24.746;2023-08-06T02:38:27;16.00;;;11.57;;
8319;SDS011;4197;42.130;24.746;2023-08-06T02:40:55;12.95;;;11.52;;
8319;SDS011;4197;42.130;24.746;2023-08-06T02:43:25;18.90;;;12.90;;
8319;SDS011;4197;42.130;24.746;2023-08-06T02:45:56;17.45;;;12.20;;
8319;SDS011;4197;42.130;24.746;2023-08-06T02:48:25;17.25;;;13.15;;
8319;SDS011;4197;42.130;24.746;2023-08-06T02:50:56;17.13;;;12.55;;
8319;SDS011;4197;42.130;24.746;2023-08-06T02:53:26;15.57;;;12.60;;
8319;SDS011;4197;42.130;24.746;2023-08-06T02:55:54;13.60;;;12.38;;
8319;SDS011;4197;42.130;24.746;2023-08-06T02:58:22;18.55;;;13.55;;
8319;SDS011;4197;42.130;24.746;2023-08-06T03:01:02;17.83;;;12.45;;
8319;SDS011;4197;42.130;24.746;2023-08-06T03:03:32;13.52;;;12.07;;
8319;SDS011;4197;42.130;24.746;2023-08-06T03:06:01;16.10;;;12.77;;
8319;SDS011;4197;42.130;24.746;2023-08-06T03:08:29;16.45;;;12.55;;
8319;SDS011;4197;42.130;24.746;2023-08-06T03:10:57;13.23;;;11.43;;
8319;SDS011;4197;42.130;24.746;2023-08-06T03:13:26;16.90;;;11.95;;
8319;SDS011;4197;42.130;24.746;2023-08-06T03:15:54;17.98;;;12.18;;
8319;SDS011;4197;42.130;24.746;2023-08-06T03:18:25;14.30;;;12.00;;
8319;SDS011;4197;42.130;24.746;2023-08-06T03:20:54;15.13;;;13.52;;
8319;SDS011;4197;42.130;24.746;2023-08-06T03:23:23;15.85;;;13.13;;
8319;SDS011;4197;42.130;24.746;2023-08-06T03:25:51;15.07;;;13.48;;
8319;SDS011;4197;42.130;24.746;2023-08-06T03:28:19;16.00;;;14.27;;
8319;SDS011;4197;42.130;24.746;2023-08-06T03:30:48;16.13;;;14.65;;
8319;SDS011;4197;42.130;24.746;2023-08-06T03:33:28;21.08;;;16.13;;
8319;SDS011;4197;42.130;24.746;2023-08-06T03:35:57;17.60;;;15.60;;
8319;SDS011;4197;42.130;24.746;2023-08-06T03:38:25;19.30;;;15.82;;
8319;SDS011;4197;42.130;24.746;2023-08-06T03:40:54;18.40;;;15.55;;
8319;SDS011;4197;42.130;24.746;2023-08-06T03:43:22;19.90;;;14.77;;
8319;SDS011;4197;42.130;24.746;2023-08-06T03:45:50;21.48;;;15.35;;
8319;SDS011;4197;42.130;24.746;2023-08-06T03:48:18;18.58;;;16.73;;
8319;SDS011;4197;42.130;24.746;2023-08-06T03:50:48;19.02;;;17.08;;
8319;SDS011;4197;42.130;24.746;2023-08-06T03:53:16;18.35;;;15.27;;
8319;SDS011;4197;42.130;24.746;2023-08-06T03:55:44;17.45;;;15.65;;
8319;SDS011;4197;42.130;24.746;2023-08-06T03:58:12;18.58;;;16.80;;
8319;SDS011;4197;42.130;24.746;2023-08-06T04:00:40;17.25;;;15.35;;
8319;SDS011;4197;42.130;24.746;2023-08-06T04:03:09;19.55;;;16.85;;
8319;SDS011;4197;42.130;24.746;2023-08-06T04:05:37;22.70;;;17.27;;
8319;SDS011;4197;42.130;24.746;2023-08-06T04:08:07;21.10;;;16.48;;
8319;SDS011;4197;42.130;24.746;2023-08-06T04:10:35;20.52;;;18.17;;
8319;SDS011;4197;42.130;24.746;2023-08-06T04:13:03;23.33;;;19.67;;
8319;SDS011;4197;42.130;24.746;2023-08-06T04:15:33;22.98;;;19.73;;
8319;SDS011;4197;42.130;24.746;2023-08-06T04:18:01;24.88;;;21.20;;
8319;SDS011;4197;42.130;24.746;2023-08-06T04:20:30;23.80;;;20.63;;
8319;SDS011;4197;42.130;24.746;2023-08-06T04:22:58;21.83;;;19.63;;
8319;SDS011;4197;42.130;24.746;2023-08-06T04:25:27;21.90;;;19.58;;
8319;SDS011;4197;42.130;24.746;2023-08-06T04:27:56;19.95;;;17.83;;
8319;SDS011;4197;42.130;24.746;2023-08-06T04:30:24;27.15;;;22.42;;
8319;SDS011;4197;42.130;24.746;2023-08-06T04:32:52;25.08;;;21.88;;
8319;SDS011;4197;42.130;24.746;2023-08-06T04:35:20;21.13;;;18.70;;
8319;SDS011;4197;42.130;24.746;2023-08-06T04:37:49;20.95;;;18.73;;
8319;SDS011;4197;42.130;24.746;2023-08-06T04:40:17;21.65;;;19.33;;
8319;SDS011;4197;42.130;24.746;2023-08-06T04:42:46;21.80;;;18.80;;
8319;SDS011;4197;42.130;24.746;2023-08-06T04:45:14;21.05;;;18.83;;
8319;SDS011;4197;42.130;24.746;2023-08-06T04:47:43;21.60;;;19.40;;
8319;SDS011;4197;42.130;24.746;2023-08-06T04:50:11;24.88;;;20.80;;
8319;SDS011;4197;42.130;24.746;2023-08-06T04:52:39;23.40;;;20.23;;
8319;SDS011;4197;42.130;24.746;2023-08-06T04:55:07;23.00;;;20.10;;
8319;SDS011;4197;42.130;24.746;2023-08-06T04:57:35;23.17;;;20.88;;
8319;SDS011;4197;42.130;24.746;2023-08-06T05:00:06;24.63;;;21.27;;
8319;SDS011;4197;42.130;24.746;2023-08-06T05:02:35;25.50;;;19.77;;
8319;SDS011;4197;42.130;24.746;2023-08-06T05:05:05;27.80;;;20.40;;
8319;SDS011;4197;42.130;24.746;2023-08-06T05:07:34;22.48;;;19.70;;
8319;SDS011;4197;42.130;24.746;2023-08-06T05:10:04;23.60;;;21.30;;
8319;SDS011;4197;42.130;24.746;2023-08-06T05:12:33;23.52;;;21.02;;
8319;SDS011;4197;42.130;24.746;2023-08-06T05:15:02;24.40;;;21.90;;
8319;SDS011;4197;42.130;24.746;2023-08-06T05:17:31;27.10;;;20.05;;
8319;SDS011;4197;42.130;24.746;2023-08-06T05:20:01;23.98;;;21.40;;
8319;SDS011;4197;42.130;24.746;2023-08-06T05:22:30;26.83;;;22.35;;
8319;SDS011;4197;42.130;24.746;2023-08-06T05:24:58;23.95;;;20.98;;
8319;SDS011;4197;42.130;24.746;2023-08-06T05:27:26;23.75;;;21.30;;
8319;SDS011;4197;42.130;24.746;2023-08-06T05:29:55;24.67;;;20.15;;
8319;SDS011;4197;42.130;24.746;2023-08-06T05:32:23;19.05;;;14.18;;
8319;SDS011;4197;42.130;24.746;2023-08-06T05:34:53;15.55;;;11.02;;
8319;SDS011;4197;42.130;24.746;2023-08-06T05:37:21;22.80;;;9.57;;
8319;SDS011;4197;42.130;24.746;2023-08-06T05:39:49;17.52;;;9.77;;
8319;SDS011;4197;42.130;24.746;2023-08-06T05:42:18;15.13;;;9.00;;
8319;SDS011;4197;42.130;24.746;2023-08-06T05:44:46;12.35;;;8.05;;
8319;SDS011;4197;42.130;24.746;2023-08-06T05:47:14;12.07;;;8.27;;
8319;SDS011;4197;42.130;24.746;2023-08-06T05:49:42;10.50;;;8.23;;
8319;SDS011;4197;42.130;24.746;2023-08-06T05:52:12;8.77;;;7.47;;
8319;SDS011;4197;42.130;24.746;2023-08-06T05:54:40;11.52;;;7.75;;
8319;SDS011;4197;42.130;24.746;2023-08-06T05:57:08;10.77;;;7.53;;
8319;SDS011;4197;42.130;24.746;2023-08-06T05:59:36;10.07;;;7.28;;
8319;SDS011;4197;42.130;24.746;2023-08-06T06:02:05;11.98;;;7.63;;
8319;SDS011;4197;42.130;24.746;2023-08-06T06:04:33;11.05;;;7.50;;
8319;SDS011;4197;42.130;24.746;2023-08-06T06:07:02;9.98;;;7.53;;
8319;SDS011;4197;42.130;24.746;2023-08-06T06:09:32;10.73;;;8.23;;
8319;SDS011;4197;42.130;24.746;2023-08-06T06:12:00;8.95;;;7.90;;
8319;SDS011;4197;42.130;24.746;2023-08-06T06:14:28;14.30;;;8.63;;
8319;SDS011;4197;42.130;24.746;2023-08-06T06:16:56;12.68;;;8.00;;
8319;SDS011;4197;42.130;24.746;2023-08-06T06:19:25;13.35;;;8.80;;
8319;SDS011;4197;42.130;24.746;2023-08-06T06:21:54;11.63;;;8.77;;
8319;SDS011;4197;42.130;24.746;2023-08-06T06:24:24;12.93;;;9.88;;
8319;SDS011;4197;42.130;24.746;2023-08-06T06:26:53;13.20;;;9.88;;
8319;SDS011;4197;42.130;24.746;2023-08-06T06:29:22;10.60;;;9.15;;
8319;SDS011;4197;42.130;24.746;2023-08-06T06:31:50;13.55;;;8.57;;
8319;SDS011;4197;42.130;24.746;2023-08-06T06:34:18;11.27;;;8.75;;
8319;SDS011;4197;42.130;24.746;2023-08-06T06:36:47;17.48;;;10.05;;
8319;SDS011;4197;42.130;24.746;2023-08-06T06:39:15;12.27;;;9.57;;
8319;SDS011;4197;42.130;24.746;2023-08-06T06:41:43;16.60;;;9.98;;
8319;SDS011;4197;42.130;24.746;2023-08-06T06:44:13;15.63;;;10.80;;
8319;SDS011;4197;42.130;24.746;2023-08-06T06:46:42;12.50;;;10.40;;
8319;SDS011;4197;42.130;24.746;2023-08-06T06:49:10;14.02;;;10.38;;
8319;SDS011;4197;42.130;24.746;2023-08-06T06:51:39;11.07;;;8.80;;
8319;SDS011;4197;42.130;24.746;2023-08-06T06:54:07;10.57;;;9.48;;
8319;SDS011;4197;42.130;24.746;2023-08-06T06:56:35;12.38;;;9.88;;
8319;SDS011;4197;42.130;24.746;2023-08-06T06:59:03;13.15;;;9.43;;
8319;SDS011;4197;42.130;24.746;2023-08-06T07:01:33;12.02;;;9.52;;
8319;SDS011;4197;42.130;24.746;2023-08-06T07:04:02;11.43;;;9.40;;
8319;SDS011;4197;42.130;24.746;2023-08-06T07:06:31;12.80;;;9.50;;
8319;SDS011;4197;42.130;24.746;2023-08-06T07:09:00;16.80;;;9.25;;
8319;SDS011;4197;42.130;24.746;2023-08-06T07:11:28;10.70;;;8.45;;
8319;SDS011;4197;42.130;24.746;2023-08-06T07:13:56;9.82;;;8.30;;
8319;SDS011;4197;42.130;24.746;2023-08-06T07:16:26;11.85;;;8.93;;
8319;SDS011;4197;42.130;24.746;2023-08-06T07:18:57;11.18;;;8.57;;
8319;SDS011;4197;42.130;24.746;2023-08-06T07:21:26;12.18;;;8.65;;
8319;SDS011;4197;42.130;24.746;2023-08-06T07:23:54;11.10;;;8.25;;
8319;SDS011;4197;42.130;24.746;2023-08-06T07:26:22;10.57;;;9.00;;
8319;SDS011;4197;42.130;24.746;2023-08-06T07:28:50;10.63;;;9.18;;
8319;SDS011;4197;42.130;24.746;2023-08-06T07:31:18;10.65;;;9.55;;
8319;SDS011;4197;42.130;24.746;2023-08-06T07:33:46;14.85;;;10.23;;
8319;SDS011;4197;42.130;24.746;2023-08-06T07:36:16;11.55;;;10.27;;
8319;SDS011;4197;42.130;24.746;2023-08-06T07:38:44;13.30;;;10.13;;
8319;SDS011;4197;42.130;24.746;2023-08-06T07:41:12;13.23;;;10.50;;
8319;SDS011;4197;42.130;24.746;2023-08-06T07:43:40;12.13;;;9.85;;
8319;SDS011;4197;42.130;24.746;2023-08-06T07:46:09;12.63;;;9.30;;
8319;SDS011;4197;42.130;24.746;2023-08-06T07:48:38;11.02;;;9.88;;
8319;SDS011;4197;42.130;24.746;2023-08-06T07:51:06;11.93;;;9.63;;
8319;SDS011;4197;42.130;24.746;2023-08-06T07:53:36;12.82;;;10.77;;
8319;SDS011;4197;42.130;24.746;2023-08-06T07:56:04;14.20;;;11.32;;
8319;SDS011;4197;42.130;24.746;2023-08-06T07:58:32;16.70;;;11.90;;
8319;SDS011;4197;42.130;24.746;2023-08-06T08:01:00;13.23;;;11.82;;
8319;SDS011;4197;42.130;24.746;2023-08-06T08:03:31;13.43;;;12.02;;
8319;SDS011;4197;42.130;24.746;2023-08-06T08:05:59;15.88;;;10.63;;
8319;SDS011;4197;42.130;24.746;2023-08-06T08:08:28;14.73;;;12.10;;
8319;SDS011;4197;42.130;24.746;2023-08-06T08:10:57;15.27;;;12.32;;
8319;SDS011;4197;42.130;24.746;2023-08-06T08:13:27;16.55;;;11.65;;
8319;SDS011;4197;42.130;24.746;2023-08-06T08:15:56;15.98;;;11.63;;
8319;SDS011;4197;42.130;24.746;2023-08-06T08:18:25;16.60;;;12.55;;
8319;SDS011;4197;42.130;24.746;2023-08-06T08:20:54;14.15;;;11.45;;
8319;SDS011;4197;42.130;24.746;2023-08-06T08:23:22;14.18;;;12.55;;
8319;SDS011;4197;42.130;24.746;2023-08-06T08:25:50;15.82;;;13.13;;
8319;SDS011;4197;42.130;24.746;2023-08-06T08:28:20;16.20;;;13.43;;
8319;SDS011;4197;42.130;24.746;2023-08-06T08:30:49;16.85;;;13.02;;
8319;SDS011;4197;42.130;24.746;2023-08-06T08:33:17;14.77;;;13.27;;
8319;SDS011;4197;42.130;24.746;2023-08-06T08:35:45;16.38;;;14.35;;
8319;SDS011;4197;42.130;24.746;2023-08-06T08:38:14;46.72;;;22.88;;
8319;SDS011;4197;42.130;24.746;2023-08-06T08:40:43;29.05;;;16.95;;
8319;SDS011;4197;42.130;24.746;2023-08-06T08:43:14;21.67;;;14.70;;
8319;SDS011;4197;42.130;24.746;2023-08-06T08:45:44;15.32;;;11.27;;
8319;SDS011;4197;42.130;24.746;2023-08-06T08:48:18;12.50;;;10.10;;
8319;SDS011;4197;42.130;24.746;2023-08-06T08:50:47;13.13;;;10.40;;
8319;SDS011;4197;42.130;24.746;2023-08-06T08:53:17;13.85;;;9.43;;
8319;SDS011;4197;42.130;24.746;2023-08-06T08:55:46;10.93;;;8.20;;
8319;SDS011;4197;42.130;24.746;2023-08-06T08:58:16;12.82;;;8.88;;
8319;SDS011;4197;42.130;24.746;2023-08-06T09:00:46;11.45;;;8.85;;
8319;SDS011;4197;42.130;24.746;2023-08-06T09:03:16;10.15;;;9.07;;
8319;SDS011;4197;42.130;24.746;2023-08-06T09:05:45;9.98;;;8.95;;
8319;SDS011;4197;42.130;24.746;2023-08-06T09:08:17;11.07;;;9.98;;
8319;SDS011;4197;42.130;24.746;2023-08-06T09:10:48;10.50;;;9.48;;
8319;SDS011;4197;42.130;24.746;2023-08-06T09:13:18;13.18;;;9.80;;
8319;SDS011;4197;42.130;24.746;2023-08-06T09:15:49;8.85;;;7.25;;
8319;SDS011;4197;42.130;24.746;2023-08-06T09:18:24;9.55;;;8.48;;
8319;SDS011;4197;42.130;24.746;2023-08-06T09:20:54;11.00;;;8.82;;
8319;SDS011;4197;42.130;24.746;2023-08-06T09:23:27;10.18;;;9.18;;
8319;SDS011;4197;42.130;24.746;2023-08-06T09:26:00;10.63;;;7.72;;
8319;SDS011;4197;42.130;24.746;2023-08-06T09:28:36;7.65;;;6.45;;
8319;SDS011;4197;42.130;24.746;2023-08-06T09:31:09;6.82;;;4.53;;
8319;SDS011;4197;42.130;24.746;2023-08-06T09:33:38;4.57;;;4.18;;
8319;SDS011;4197;42.130;24.746;2023-08-06T09:36:09;5.65;;;4.00;;
8319;SDS011;4197;42.130;24.746;2023-08-06T09:38:38;5.18;;;4.68;;
8319;SDS011;4197;42.130;24.746;2023-08-06T09:41:08;5.43;;;3.72;;
8319;SDS011;4197;42.130;24.746;2023-08-06T09:43:39;5.53;;;4.45;;
8319;SDS011;4197;42.130;24.746;2023-08-06T09:46:13;4.82;;;4.10;;
8319;SDS011;4197;42.130;24.746;2023-08-06T09:48:46;3.75;;;3.45;;
8319;SDS011;4197;42.130;24.746;2023-08-06T09:51:14;6.22;;;4.25;;
8319;SDS011;4197;42.130;24.746;2023-08-06T09:53:43;4.43;;;4.03;;
8319;SDS011;4197;42.130;24.746;2023-08-06T09:56:13;5.18;;;4.68;;
8319;SDS011;4197;42.130;24.746;2023-08-06T09:58:43;7.60;;;5.93;;
8319;SDS011;4197;42.130;24.746;2023-08-06T10:01:17;7.45;;;6.75;;
8319;SDS011;4197;42.130;24.746;2023-08-06T10:03:46;8.07;;;7.38;;
8319;SDS011;4197;42.130;24.746;2023-08-06T10:06:17;10.18;;;7.85;;
8319;SDS011;4197;42.130;24.746;2023-08-06T10:08:46;10.88;;;8.23;;
8319;SDS011;4197;42.130;24.746;2023-08-06T10:11:17;8.10;;;7.30;;
8319;SDS011;4197;42.130;24.746;2023-08-06T10:13:52;9.02;;;7.85;;
8319;SDS011;4197;42.130;24.746;2023-08-06T10:16:31;7.97;;;7.25;;
8319;SDS011;4197;42.130;24.746;2023-08-06T10:19:01;7.65;;;6.95;;
8319;SDS011;4197;42.130;24.746;2023-08-06T10:21:33;10.40;;;7.38;;
8319;SDS011;4197;42.130;24.746;2023-08-06T10:24:03;7.63;;;6.90;;
8319;SDS011;4197;42.130;24.746;2023-08-06T10:26:36;9.68;;;6.82;;
8319;SDS011;4197;42.130;24.746;2023-08-06T10:32:04;6.82;;;6.22;;
8319;SDS011;4197;42.130;24.746;2023-08-06T10:37:23;6.32;;;5.82;;
8319;SDS011;4197;42.130;24.746;2023-08-06T10:39:51;7.13;;;5.90;;
8319;SDS011;4197;42.130;24.746;2023-08-06T10:42:20;7.05;;;6.38;;
8319;SDS011;4197;42.130;24.746;2023-08-06T10:47:41;6.50;;;5.90;;
8319;SDS011;4197;42.130;24.746;2023-08-06T10:50:11;7.10;;;6.50;;
8319;SDS011;4197;42.130;24.746;2023-08-06T10:52:43;8.13;;;6.18;;
8319;SDS011;4197;42.130;24.746;2023-08-06T10:55:11;6.28;;;5.75;;
8319;SDS011;4197;42.130;24.746;2023-08-06T10:57:40;6.13;;;5.63;;
8319;SDS011;4197;42.130;24.746;2023-08-06T11:00:10;6.35;;;5.75;;
8319;SDS011;4197;42.130;24.746;2023-08-06T11:02:48;7.25;;;6.43;;
8319;SDS011;4197;42.130;24.746;2023-08-06T11:05:18;8.93;;;6.03;;
8319;SDS011;4197;42.130;24.746;2023-08-06T11:07:47;6.65;;;6.00;;
8319;SDS011;4197;42.130;24.746;2023-08-06T11:10:17;5.13;;;4.68;;
8319;SDS011;4197;42.130;24.746;2023-08-06T11:12:46;6.82;;;5.82;;
8319;SDS011;4197;42.130;24.746;2023-08-06T11:15:14;6.78;;;5.30;;
8319;SDS011;4197;42.130;24.746;2023-08-06T11:17:43;5.85;;;5.25;;
8319;SDS011;4197;42.130;24.746;2023-08-06T11:20:14;5.57;;;4.78;;
8319;SDS011;4197;42.130;24.746;2023-08-06T11:22:43;5.35;;;4.85;;
8319;SDS011;4197;42.130;24.746;2023-08-06T11:25:11;5.03;;;4.53;;
8319;SDS011;4197;42.130;24.746;2023-08-06T11:27:40;6.10;;;4.47;;
8319;SDS011;4197;42.130;24.746;2023-08-06T11:30:10;4.78;;;4.38;;
8319;SDS011;4197;42.130;24.746;2023-08-06T11:32:45;5.57;;;4.70;;
8319;SDS011;4197;42.130;24.746;2023-08-06T11:35:17;5.70;;;5.20;;
8319;SDS011;4197;42.130;24.746;2023-08-06T11:38:03;4.97;;;4.38;;
8319;SDS011;4197;42.130;24.746;2023-08-06T11:40:31;4.93;;;3.97;;
8319;SDS011;4197;42.130;24.746;2023-08-06T11:43:00;4.60;;;4.00;;
8319;SDS011;4197;42.130;24.746;2023-08-06T11:45:29;4.70;;;4.28;;
8319;SDS011;4197;42.130;24.746;2023-08-06T11:47:57;4.43;;;4.05;;
8319;SDS011;4197;42.130;24.746;2023-08-06T11:50:26;4.72;;;3.80;;
8319;SDS011;4197;42.130;24.746;2023-08-06T11:52:57;4.57;;;4.18;;
8319;SDS011;4197;42.130;24.746;2023-08-06T11:55:27;4.30;;;3.90;;
8319;SDS011;4197;42.130;24.746;2023-08-06T11:57:56;4.47;;;3.65;;
8319;SDS011;4197;42.130;24.746;2023-08-06T12:00:25;3.65;;;3.30;;
8319;SDS011;4197;42.130;24.746;2023-08-06T12:02:53;3.53;;;2.97;;
8319;SDS011;4197;42.130;24.746;2023-08-06T12:05:22;4.07;;;2.75;;
8319;SDS011;4197;42.130;24.746;2023-08-06T12:07:54;3.83;;;2.90;;
8319;SDS011;4197;42.130;24.746;2023-08-06T12:10:26;4.03;;;3.03;;
8319;SDS011;4197;42.130;24.746;2023-08-06T12:12:54;3.47;;;2.85;;
8319;SDS011;4197;42.130;24.746;2023-08-06T12:15:23;2.65;;;2.45;;
8319;SDS011;4197;42.130;24.746;2023-08-06T12:17:52;3.83;;;3.03;;
8319;SDS011;4197;42.130;24.746;2023-08-06T12:20:20;4.93;;;3.35;;
8319;SDS011;4197;42.130;24.746;2023-08-06T12:22:50;3.30;;;3.00;;
8319;SDS011;4197;42.130;24.746;2023-08-06T12:25:24;6.53;;;3.20;;
8319;SDS011;4197;42.130;24.746;2023-08-06T12:27:52;5.22;;;3.03;;
8319;SDS011;4197;42.130;24.746;2023-08-06T12:30:20;4.55;;;3.05;;
8319;SDS011;4197;42.130;24.746;2023-08-06T12:32:50;3.85;;;2.90;;
8319;SDS011;4197;42.130;24.746;2023-08-06T12:35:20;4.45;;;2.80;;
8319;SDS011;4197;42.130;24.746;2023-08-06T12:37:49;5.38;;;3.72;;
8319;SDS011;4197;42.130;24.746;2023-08-06T12:40:24;3.28;;;2.97;;
8319;SDS011;4197;42.130;24.746;2023-08-06T12:43:03;4.05;;;2.67;;
8319;SDS011;4197;42.130;24.746;2023-08-06T12:45:32;2.55;;;2.35;;
8319;SDS011;4197;42.130;24.746;2023-08-06T12:48:03;2.80;;;2.50;;
8319;SDS011;4197;42.130;24.746;2023-08-06T12:50:33;3.05;;;2.38;;
8319;SDS011;4197;42.130;24.746;2023-08-06T12:53:05;3.42;;;2.88;;
8319;SDS011;4197;42.130;24.746;2023-08-06T12:55:37;4.57;;;2.58;;
8319;SDS011;4197;42.130;24.746;2023-08-06T12:58:07;3.60;;;2.67;;
8319;SDS011;4197;42.130;24.746;2023-08-06T13:00:35;3.13;;;2.38;;
8319;SDS011;4197;42.130;24.746;2023-08-06T13:03:04;2.63;;;2.05;;
8319;SDS011;4197;42.130;24.746;2023-08-06T13:05:32;3.83;;;2.70;;
8319;SDS011;4197;42.130;24.746;2023-08-06T13:08:01;3.10;;;2.72;;
8319;SDS011;4197;42.130;24.746;2023-08-06T13:10:49;4.20;;;2.30;;
8319;SDS011;4197;42.130;24.746;2023-08-06T13:13:17;6.07;;;2.92;;
8319;SDS011;4197;42.130;24.746;2023-08-06T13:15:46;2.85;;;2.22;;
8319;SDS011;4197;42.130;24.746;2023-08-06T13:18:14;3.40;;;2.28;;
8319;SDS011;4197;42.130;24.746;2023-08-06T13:20:43;4.03;;;2.50;;
8319;SDS011;4197;42.130;24.746;2023-08-06T13:23:13;2.67;;;2.33;;
8319;SDS011;4197;42.130;24.746;2023-08-06T13:25:43;2.70;;;2.40;;
8319;SDS011;4197;42.130;24.746;2023-08-06T13:28:12;3.53;;;2.60;;
8319;SDS011;4197;42.130;24.746;2023-08-06T13:30:41;2.58;;;2.28;;
8319;SDS011;4197;42.130;24.746;2023-08-06T13:33:09;4.03;;;2.42;;
8319;SDS011;4197;42.130;24.746;2023-08-06T13:35:38;4.57;;;3.10;;
8319;SDS011;4197;42.130;24.746;2023-08-06T13:38:06;3.42;;;2.72;;
8319;SDS011;4197;42.130;24.746;2023-08-06T13:40:35;3.65;;;2.08;;
8319;SDS011;4197;42.130;24.746;2023-08-06T13:43:03;2.83;;;2.33;;
8319;SDS011;4197;42.130;24.746;2023-08-06T13:45:33;3.65;;;2.40;;
8319;SDS011;4197;42.130;24.746;2023-08-06T13:48:02;4.13;;;2.63;;
8319;SDS011;4197;42.130;24.746;2023-08-06T13:50:31;2.58;;;1.92;;
8319;SDS011;4197;42.130;24.746;2023-08-06T13:52:59;5.03;;;2.10;;
8319;SDS011;4197;42.130;24.746;2023-08-06T13:55:28;2.53;;;1.80;;
8319;SDS011;4197;42.130;24.746;2023-08-06T13:57:56;2.83;;;1.92;;
8319;SDS011;4197;42.130;24.746;2023-08-06T14:00:24;3.17;;;1.90;;
8319;SDS011;4197;42.130;24.746;2023-08-06T14:02:55;4.60;;;2.13;;
8319;SDS011;4197;42.130;24.746;2023-08-06T14:05:23;3.40;;;2.30;;
8319;SDS011;4197;42.130;24.746;2023-08-06T14:07:51;3.13;;;1.88;;
8319;SDS011;4197;42.130;24.746;2023-08-06T14:10:19;3.53;;;2.30;;
8319;SDS011;4197;42.130;24.746;2023-08-06T14:12:47;3.40;;;2.10;;
8319;SDS011;4197;42.130;24.746;2023-08-06T14:15:34;2.25;;;1.80;;
8319;SDS011;4197;42.130;24.746;2023-08-06T14:18:04;2.60;;;2.08;;
8319;SDS011;4197;42.130;24.746;2023-08-06T14:20:32;2.75;;;2.13;;
8319;SDS011;4197;42.130;24.746;2023-08-06T14:23:00;2.85;;;1.80;;
8319;SDS011;4197;42.130;24.746;2023-08-06T14:25:29;3.15;;;2.25;;
8319;SDS011;4197;42.130;24.746;2023-08-06T14:27:57;1.80;;;1.58;;
8319;SDS011;4197;42.130;24.746;2023-08-06T14:30:25;3.53;;;2.00;;
8319;SDS011;4197;42.130;24.746;2023-08-06T14:32:53;2.65;;;1.90;;
8319;SDS011;4197;42.130;24.746;2023-08-06T14:35:23;2.08;;;1.88;;
8319;SDS011;4197;42.130;24.746;2023-08-06T14:37:52;2.47;;;1.92;;
8319;SDS011;4197;42.130;24.746;2023-08-06T14:40:20;3.47;;;2.08;;
8319;SDS011;4197;42.130;24.746;2023-08-06T14:42:48;4.38;;;2.00;;
8319;SDS011;4197;42.130;24.746;2023-08-06T14:45:16;3.00;;;2.13;;
8319;SDS011;4197;42.130;24.746;2023-08-06T14:47:44;4.10;;;2.20;;
8319;SDS011;4197;42.130;24.746;2023-08-06T14:50:13;4.40;;;2.10;;
8319;SDS011;4197;42.130;24.746;2023-08-06T14:52:42;5.07;;;2.22;;
8319;SDS011;4197;42.130;24.746;2023-08-06T14:55:11;4.85;;;2.20;;
8319;SDS011;4197;42.130;24.746;2023-08-06T14:57:39;5.28;;;2.40;;
8319;SDS011;4197;42.130;24.746;2023-08-06T15:00:08;3.28;;;2.13;;
8319;SDS011;4197;42.130;24.746;2023-08-06T15:02:37;3.80;;;2.00;;
8319;SDS011;4197;42.130;24.746;2023-08-06T15:05:05;3.60;;;2.20;;
8319;SDS011;4197;42.130;24.746;2023-08-06T15:07:34;3.45;;;2.30;;
8319;SDS011;4197;42.130;24.746;2023-08-06T15:10:05;3.83;;;2.50;;